Time;durP1;ratioP1;P1;durP2;ratioP2;P2;SDS_P1;SDS_P2;PMS_P1;PMS_P2;Temp;Humidity;BMP_temperature;BMP_pressure;BME280_temperature;BME280_humidity;BME280_pressure;Samples;Min_cycle;Max_cycle;Signal;HPM_P1;HPM_P2
2021/10/05 00:02:03;;;;;;;18.10;11.90;;;;;;;5.86;84.36;98065.86;116536;1182;71282;-67
2021/10/05 00:04:33;;;;;;;20.40;11.30;;;;;;;5.87;84.75;98066.80;116443;1183;68202;-69
2021/10/05 00:07:03;;;;;;;17.50;11.90;;;;;;;5.90;86.25;98070.10;116592;1180;69254;-68
2021/10/05 00:09:33;;;;;;;17.30;11.50;;;;;;;5.91;85.50;98069.25;116450;1181;59560;-71
2021/10/05 00:12:03;;;;;;;17.40;11.50;;;;;;;5.87;84.63;98073.31;116393;1182;59548;-67
2021/10/05 00:14:33;;;;;;;19.10;10.30;;;;;;;5.84;83.75;98065.70;116488;1182;70567;-71
2021/10/05 00:17:03;;;;;;;19.90;10.70;;;;;;;5.85;85.32;98068.05;116406;1182;68213;-69
2021/10/05 00:19:33;;;;;;;18.20;10.70;;;;;;;5.83;84.39;98064.38;116382;1173;69024;-69
2021/10/05 00:22:03;;;;;;;16.60;10.70;;;;;;;5.80;84.08;98059.74;116423;1180;59619;-68
2021/10/05 00:24:36;;;;;;;17.80;11.00;;;;;;;5.77;83.15;98061.09;116348;1183;59588;-75
2021/10/05 00:27:14;;;;;;;18.00;10.90;;;;;;;5.74;83.20;98063.12;116202;1184;70687;-74
2021/10/05 00:29:55;;;;;;;15.70;10.80;;;;;;;5.71;83.07;98061.63;116175;1182;68724;-74
2021/10/05 00:32:43;;;;;;;18.20;9.60;;;;;;;5.68;83.28;98057.45;116279;1182;67418;-74
2021/10/05 00:35:23;;;;;;;15.90;9.10;;;;;;;5.67;84.95;98055.19;116269;1184;59529;-76
2021/10/05 00:38:00;;;;;;;18.50;9.20;;;;;;;5.65;85.34;98056.05;116163;1184;59549;-75
2021/10/05 00:40:39;;;;;;;14.50;9.40;;;;;;;5.66;85.60;98055.66;116350;1181;70651;-74
2021/10/05 00:43:19;;;;;;;14.10;9.60;;;;;;;5.66;85.64;98062.17;116278;1184;67649;-73
2021/10/05 00:45:54;;;;;;;16.50;9.80;;;;;;;5.63;85.05;98061.31;116421;1173;69285;-75
2021/10/05 00:48:26;;;;;;;15.60;10.30;;;;;;;5.61;84.63;98061.71;116286;1183;59546;-74
2021/10/05 00:51:00;;;;;;;15.90;10.30;;;;;;;5.59;83.98;98063.13;116363;1181;59583;-72
2021/10/05 00:53:31;;;;;;;15.20;10.60;;;;;;;5.55;83.94;98063.58;116336;1182;70587;-67
2021/10/05 00:56:03;;;;;;;18.40;11.50;;;;;;;5.52;83.70;98059.81;116082;1184;68255;-74
2021/10/05 00:58:35;;;;;;;15.60;10.10;;;;;;;5.49;84.40;98062.71;116222;1184;67649;-70
2021/10/05 01:01:05;;;;;;;;;;;;;;;5.45;83.93;98061.38;116444;1182;59537;-74
2021/10/05 01:03:38;;;;;;;15.00;8.50;;;;;;;5.42;85.14;98064.91;116405;1182;59483;-77
2021/10/05 01:06:10;;;;;;;15.50;9.70;;;;;;;5.41;85.78;98058.88;116346;1182;70477;-73
2021/10/05 01:08:47;;;;;;;17.40;9.80;;;;;;;5.43;86.21;98064.60;116373;1182;67578;-70
2021/10/05 01:11:18;;;;;;;14.50;9.30;;;;;;;5.43;86.34;98069.23;116400;1174;69257;-70
2021/10/05 01:13:49;;;;;;;;;;;;;;;5.43;86.21;98069.63;116449;1183;59548;-75
2021/10/05 01:16:26;;;;;;;14.90;8.70;;;;;;;5.42;86.18;98071.58;116127;1184;59549;-74
2021/10/05 01:19:04;;;;;;;14.10;8.10;;;;;;;5.40;84.90;98071.59;116415;1184;71517;-68
2021/10/05 01:21:35;;;;;;;14.80;10.10;;;;;;;5.38;85.36;98073.60;116317;1184;68373;-74
2021/10/05 01:24:14;;;;;;;13.10;9.10;;;;;;;5.38;85.26;98071.17;116253;1182;69032;-72
2021/10/05 01:26:52;;;;;;;14.70;9.10;;;;;;;5.39;85.40;98067.35;116388;1176;59606;-73
2021/10/05 01:29:28;;;;;;;16.90;8.50;;;;;;;5.38;85.09;98063.33;116228;1184;59544;-74
2021/10/05 01:32:04;;;;;;;16.60;9.10;;;;;;;5.38;85.48;98062.86;116195;1182;71365;-74
2021/10/05 01:34:37;;;;;;;15.20;8.60;;;;;;;5.39;86.24;98060.35;116397;1183;67492;-72
2021/10/05 01:37:09;;;;;;;15.90;8.90;;;;;;;5.39;86.46;98059.80;116059;1184;69108;-73
2021/10/05 01:39:42;;;;;;;15.00;9.00;;;;;;;5.38;85.95;98059.70;116066;1184;59598;-75
2021/10/05 01:42:16;;;;;;;16.50;9.10;;;;;;;5.35;85.85;98059.95;116246;1184;59529;-75
2021/10/05 01:44:51;;;;;;;13.50;9.20;;;;;;;5.31;85.49;98060.11;116240;1184;71436;-73
2021/10/05 01:47:26;;;;;;;14.00;9.60;;;;;;;5.25;84.77;98060.19;116188;1182;68335;-74
2021/10/05 01:50:03;;;;;;;15.70;9.10;;;;;;;5.19;84.35;98062.04;116224;1184;69428;-75
2021/10/05 01:52:44;;;;;;;14.20;9.10;;;;;;;5.13;84.24;98060.46;116194;1174;59576;-74
2021/10/05 01:55:21;;;;;;;12.40;8.70;;;;;;;5.08;84.90;98060.93;116276;1184;59551;-75
2021/10/05 01:57:56;;;;;;;12.00;8.60;;;;;;;5.06;85.01;98062.34;116275;1184;71209;-73
2021/10/05 02:00:31;;;;;;;14.90;8.80;;;;;;;5.02;84.96;98060.98;116206;1184;68450;-75
2021/10/05 02:03:19;;;;;;;12.90;8.10;;;;;;;5.00;84.48;98063.71;116357;1182;69253;-74
2021/10/05 02:06:01;;;;;;;19.60;9.20;;;;;;;4.99;85.57;98063.08;116480;1182;59537;-75
2021/10/05 02:08:41;;;;;;;13.60;9.20;;;;;;;4.98;85.82;98063.16;116353;1183;59553;-74
2021/10/05 02:11:21;;;;;;;14.70;8.90;;;;;;;4.97;86.66;98064.41;116156;1183;71364;-76
2021/10/05 02:14:02;;;;;;;14.40;9.10;;;;;;;4.97;87.23;98059.48;116233;1184;68407;-74
2021/10/05 02:16:35;;;;;;;11.80;8.80;;;;;;;4.98;86.86;98058.70;116055;1184;68523;-68
2021/10/05 02:19:10;;;;;;;14.20;10.10;;;;;;;4.98;86.83;98056.89;116411;1183;59509;-74
2021/10/05 02:21:51;;;;;;;20.50;10.40;;;;;;;4.98;86.11;98054.23;116380;1182;59549;-75
2021/10/05 02:24:46;;;;;;;18.40;11.90;;;;;;;4.99;85.55;98052.50;116266;1183;71410;-74
2021/10/05 02:27:23;;;;;;;16.80;11.70;;;;;;;5.04;84.72;98052.91;116258;1182;68811;-74
2021/10/05 02:29:59;;;;;;;19.50;11.60;;;;;;;5.10;85.79;98055.45;116119;1182;69239;-75
2021/10/05 02:32:34;;;;;;;14.10;9.70;;;;;;;5.11;86.04;98052.69;116162;1184;59614;-74
2021/10/05 02:35:15;;;;;;;14.40;9.20;;;;;;;5.11;86.14;98057.72;116197;1182;59583;-73
2021/10/05 02:37:51;;;;;;;15.80;9.00;;;;;;;5.09;86.93;98057.48;116378;1183;71452;-75
2021/10/05 02:40:31;;;;;;;17.90;9.70;;;;;;;5.06;85.97;98056.77;116249;1183;67676;-72
2021/10/05 02:43:10;;;;;;;12.50;7.60;;;;;;;5.03;87.21;98058.48;116257;1184;70273;-74
2021/10/05 02:45:52;;;;;;;13.20;7.80;;;;;;;5.00;88.09;98059.95;116361;1182;59571;-72
2021/10/05 02:48:32;;;;;;;14.00;9.50;;;;;;;4.97;87.31;98061.20;116184;1184;59615;-73
2021/10/05 02:51:09;;;;;;;16.10;9.60;;;;;;;4.97;87.00;98057.59;116297;1182;70352;-74
2021/10/05 02:53:49;;;;;;;15.30;9.90;;;;;;;4.95;87.93;98061.59;116381;1182;68409;-72
2021/10/05 02:56:22;;;;;;;15.60;10.40;;;;;;;4.92;87.96;98059.16;116116;1184;69383;-71
2021/10/05 02:58:54;;;;;;;16.60;9.90;;;;;;;4.91;87.50;98059.08;116384;1183;59580;-74
2021/10/05 03:01:30;;;;;;;16.50;10.70;;;;;;;4.90;87.48;98060.49;116125;1184;59571;-75
2021/10/05 03:04:07;;;;;;;18.30;10.90;;;;;;;4.90;86.17;98062.84;116203;1182;71214;-74
2021/10/05 03:06:40;;;;;;;16.20;10.50;;;;;;;4.93;86.77;98063.16;116412;1183;68612;-74
2021/10/05 03:09:20;;;;;;;15.50;10.00;;;;;;;4.95;87.16;98061.67;116219;1184;69292;-71
2021/10/05 03:12:05;;;;;;;14.90;9.60;;;;;;;4.96;87.50;98060.11;116312;1180;59540;-75
2021/10/05 03:14:42;;;;;;;16.30;9.90;;;;;;;4.98;86.64;98057.76;116218;1183;59516;-73
2021/10/05 03:17:17;;;;;;;17.30;10.80;;;;;;;5.00;86.86;98053.67;116220;1184;71390;-75
2021/10/05 03:19:49;;;;;;;15.60;9.90;;;;;;;4.97;86.53;98051.79;116369;1182;68378;-71
2021/10/05 03:22:19;;;;;;;11.90;8.40;;;;;;;4.94;86.43;98054.54;116387;1182;69255;-72
2021/10/05 03:24:49;;;;;;;;;;;;;;;4.91;86.61;98057.59;116445;1182;59639;-71
2021/10/05 03:27:19;;;;;;;14.10;9.30;;;;;;;4.86;86.13;98053.82;116440;1181;59480;-72
2021/10/05 03:29:48;;;;;;;14.90;9.50;;;;;;;4.81;85.53;98057.63;116408;1181;71149;-72
2021/10/05 03:32:18;;;;;;;18.00;10.50;;;;;;;4.72;84.95;98055.56;116379;1182;67441;-67
2021/10/05 03:34:48;;;;;;;15.20;10.10;;;;;;;4.60;85.20;98059.27;116451;1181;69210;-71
2021/10/05 03:37:18;;;;;;;;;;;;;;;4.52;85.03;98057.20;116473;1181;59600;-71
2021/10/05 03:39:48;;;;;;;16.50;9.40;;;;;;;4.44;85.63;98061.54;116436;1181;59582;-70
2021/10/05 03:42:17;;;;;;;12.60;7.40;;;;;;;4.39;86.38;98061.69;116418;1182;70375;-67
2021/10/05 03:44:47;;;;;;;14.80;9.00;;;;;;;4.34;86.47;98061.83;116382;1182;68232;-68
2021/10/05 03:47:17;;;;;;;13.80;9.10;;;;;;;4.32;86.46;98062.05;116425;1182;69233;-73
2021/10/05 03:49:47;;;;;;;16.50;9.60;;;;;;;4.29;85.90;98059.66;116427;1182;59551;-72
2021/10/05 03:52:17;;;;;;;18.80;9.40;;;;;;;4.26;86.18;98062.86;116428;1181;59538;-72
2021/10/05 03:54:47;;;;;;;17.30;9.90;;;;;;;4.22;86.53;98068.02;116399;1182;70791;-72
2021/10/05 03:57:19;;;;;;;13.40;8.80;;;;;;;4.18;86.69;98066.98;116245;1183;68209;-69
2021/10/05 03:59:48;;;;;;;11.00;7.80;;;;;;;4.17;87.62;98069.71;116281;1184;68514;-72
2021/10/05 04:02:18;;;;;;;12.40;8.60;;;;;;;4.16;87.51;98074.25;116439;1182;59548;-69
2021/10/05 04:04:47;;;;;;;15.60;9.90;;;;;;;4.17;86.75;98074.25;116573;1182;59543;-70
2021/10/05 04:07:18;;;;;;;13.10;9.10;;;;;;;4.19;86.49;98074.49;116496;1181;71273;-73
2021/10/05 04:09:47;;;;;;;15.30;9.20;;;;;;;4.20;87.39;98079.83;116411;1182;68170;-68
2021/10/05 04:12:16;;;;;;;15.30;9.80;;;;;;;4.20;87.42;98077.71;116384;1182;69205;-70
2021/10/05 04:14:46;;;;;;;15.50;10.20;;;;;;;4.22;87.49;98081.80;116439;1175;59524;-70
2021/10/05 04:17:15;;;;;;;16.90;10.80;;;;;;;4.22;87.03;98087.12;116270;1181;59551;-71
2021/10/05 04:19:45;;;;;;;16.10;10.40;;;;;;;4.23;86.69;98094.41;116488;1182;71408;-69
2021/10/05 04:22:14;;;;;;;19.50;11.20;;;;;;;4.24;87.16;98093.40;116422;1182;68288;-70
2021/10/05 04:24:43;;;;;;;19.20;10.90;;;;;;;4.21;86.65;98101.92;116473;1182;69180;-72
2021/10/05 04:27:12;;;;;;;16.10;9.80;;;;;;;4.18;86.13;98099.09;116498;1181;59558;-68
2021/10/05 04:29:43;;;;;;;16.10;10.00;;;;;;;4.15;85.80;98102.20;116455;1182;59574;-70
2021/10/05 04:32:13;;;;;;;14.90;9.60;;;;;;;4.12;86.12;98104.27;116297;1183;71462;-72
2021/10/05 04:34:43;;;;;;;16.00;10.20;;;;;;;4.10;86.82;98105.05;116471;1182;68160;-66
2021/10/05 04:37:12;;;;;;;15.00;9.80;;;;;;;4.11;87.41;98107.25;116376;1182;68463;-67
2021/10/05 04:39:41;;;;;;;17.70;13.10;;;;;;;4.11;87.03;98111.70;116403;1182;59500;-72
2021/10/05 04:42:11;;;;;;;16.20;11.50;;;;;;;4.13;87.03;98113.69;116483;1181;59517;-69
2021/10/05 04:44:40;;;;;;;18.50;12.70;;;;;;;4.18;87.88;98121.34;116175;1182;71607;-72
2021/10/05 04:47:09;;;;;;;20.70;13.30;;;;;;;4.23;87.35;98122.54;116541;1182;67622;-68
2021/10/05 04:49:38;;;;;;;17.20;12.50;;;;;;;4.30;86.79;98125.86;116435;1174;69289;-72
2021/10/05 04:52:08;;;;;;;18.70;12.80;;;;;;;4.36;87.41;98129.60;116431;1182;59520;-71
2021/10/05 04:54:37;;;;;;;19.00;12.10;;;;;;;4.40;87.24;98127.42;116399;1182;59481;-72
2021/10/05 04:57:07;;;;;;;14.40;10.20;;;;;;;4.43;86.69;98128.61;116536;1182;71300;-71
2021/10/05 04:59:36;;;;;;;14.60;10.10;;;;;;;4.44;86.37;98126.66;116451;1181;67768;-68
2021/10/05 05:02:05;;;;;;;17.80;10.50;;;;;;;4.48;86.80;98127.48;116488;1182;68474;-71
2021/10/05 05:04:34;;;;;;;16.30;10.60;;;;;;;4.64;86.45;98129.60;116494;1181;59493;-67
2021/10/05 05:07:03;;;;;;;16.80;10.70;;;;;;;4.89;86.14;98130.58;116534;1180;59514;-70
2021/10/05 05:09:32;;;;;;;14.00;9.50;;;;;;;5.18;85.83;98138.05;116496;1182;70439;-73
2021/10/05 05:12:01;;;;;;;11.30;7.80;;;;;;;5.49;84.85;98143.71;116412;1182;68547;-69
2021/10/05 05:14:30;;;;;;;13.90;9.40;;;;;;;5.81;84.04;98145.50;116466;1181;68538;-70
2021/10/05 05:16:59;;;;;;;14.40;9.40;;;;;;;6.11;82.94;98145.69;116366;1182;59546;-68
2021/10/05 05:19:28;;;;;;;16.80;10.50;;;;;;;6.41;81.59;98146.69;116509;1182;59548;-69
2021/10/05 05:21:59;;;;;;;15.20;10.30;;;;;;;6.71;81.32;98146.86;116454;1182;71433;-71
2021/10/05 05:24:29;;;;;;;13.90;10.30;;;;;;;7.03;80.93;98152.02;116528;1181;68601;-72
2021/10/05 05:26:57;;;;;;;21.30;11.00;;;;;;;7.37;80.31;98150.46;116428;1182;67776;-71
2021/10/05 05:29:26;;;;;;;14.70;9.50;;;;;;;7.69;79.54;98148.47;116501;1182;59545;-70
2021/10/05 05:31:58;;;;;;;15.90;10.10;;;;;;;8.03;78.32;98148.39;116411;1182;59558;-68
2021/10/05 05:34:28;;;;;;;16.80;10.50;;;;;;;8.30;77.44;98152.59;116459;1181;70819;-73
2021/10/05 05:36:57;;;;;;;20.50;11.60;;;;;;;8.60;77.95;98152.64;116288;1182;68803;-72
2021/10/05 05:39:26;;;;;;;14.50;10.80;;;;;;;8.79;76.21;98153.80;116495;1181;68563;-68
2021/10/05 05:41:55;;;;;;;18.90;12.40;;;;;;;8.84;74.27;98150.19;116445;1173;59529;-68
2021/10/05 05:44:25;;;;;;;22.10;12.20;;;;;;;8.73;74.33;98155.02;116448;1181;59558;-68
2021/10/05 05:46:54;;;;;;;;;;;;;;;8.75;75.29;98155.09;116339;1182;71497;-67
2021/10/05 05:49:23;;;;;;;14.80;10.60;;;;;;;8.93;74.78;98156.32;116539;1180;68376;-68
2021/10/05 05:51:52;;;;;;;17.00;10.40;;;;;;;9.15;74.14;98163.02;116470;1181;69292;-69
2021/10/05 05:54:21;;;;;;;16.80;10.90;;;;;;;9.49;74.28;98167.32;116381;1181;59509;-71
2021/10/05 05:56:51;;;;;;;20.80;12.60;;;;;;;9.80;73.51;98168.40;116469;1181;59621;-72
2021/10/05 05:59:20;;;;;;;20.00;12.70;;;;;;;10.07;72.87;98164.27;116352;1182;71392;-67
2021/10/05 06:01:49;;;;;;;23.50;12.50;;;;;;;10.29;72.77;98167.27;116417;1181;67431;-72
2021/10/05 06:04:18;;;;;;;19.30;12.10;;;;;;;10.53;71.20;98165.98;116504;1181;69708;-69
2021/10/05 06:06:47;;;;;;;21.90;14.10;;;;;;;10.74;70.38;98162.05;116450;1181;59560;-69
2021/10/05 06:09:16;;;;;;;18.60;13.10;;;;;;;11.02;69.99;98160.48;116406;1181;59617;-74
2021/10/05 06:11:48;;;;;;;22.90;16.00;;;;;;;11.37;69.65;98159.31;116386;1183;70380;-73
2021/10/05 06:14:17;;;;;;;24.00;14.10;;;;;;;11.79;69.12;98158.02;116428;1182;69019;-69
2021/10/05 06:16:46;;;;;;;19.70;13.10;;;;;;;12.14;67.59;98158.26;116435;1182;69362;-73
2021/10/05 06:19:16;;;;;;;21.50;12.40;;;;;;;12.34;64.99;98157.94;116480;1182;59553;-68
2021/10/05 06:21:45;;;;;;;17.80;11.00;;;;;;;12.45;64.36;98156.78;116485;1181;59551;-68
2021/10/05 06:24:14;;;;;;;26.80;12.30;;;;;;;12.89;64.78;98154.69;116404;1182;71508;-66
2021/10/05 06:26:45;;;;;;;21.30;11.30;;;;;;;13.02;62.74;98150.59;116452;1182;66616;-71
2021/10/05 06:29:14;;;;;;;17.20;10.00;;;;;;;13.30;61.90;98150.80;116339;1181;69325;-69
2021/10/05 06:31:43;;;;;;;14.80;9.00;;;;;;;13.68;60.79;98149.82;116502;1181;59545;-67
2021/10/05 06:34:13;;;;;;;15.10;10.10;;;;;;;13.94;60.58;98151.35;116283;1182;59553;-67
2021/10/05 06:36:42;;;;;;;17.50;10.10;;;;;;;14.31;60.83;98152.15;116405;1174;69385;-72
2021/10/05 06:39:11;;;;;;;15.30;10.00;;;;;;;14.44;59.76;98147.67;116462;1181;68531;-71
2021/10/05 06:41:39;;;;;;;15.90;9.30;;;;;;;14.52;58.88;98147.38;116371;1182;69337;-73
2021/10/05 06:44:08;;;;;;;18.50;9.30;;;;;;;14.28;59.31;98145.38;116462;1182;59545;-69
2021/10/05 06:46:39;;;;;;;13.80;8.70;;;;;;;14.72;58.68;98144.81;116408;1182;59548;-72
2021/10/05 06:49:17;;;;;;;22.50;10.50;;;;;;;15.04;58.52;98151.34;116459;1182;71292;-73
2021/10/05 06:51:46;;;;;;;16.10;8.60;;;;;;;15.35;57.37;98151.50;116410;1181;67567;-69
2021/10/05 06:54:15;;;;;;;12.70;8.60;;;;;;;15.35;56.44;98151.88;116434;1182;69303;-71
2021/10/05 06:56:44;;;;;;;19.00;9.20;;;;;;;15.94;56.05;98150.55;116429;1182;59538;-71
2021/10/05 06:59:13;;;;;;;18.30;9.70;;;;;;;16.41;54.61;98154.47;116386;1182;59556;-70
2021/10/05 07:01:42;;;;;;;16.50;8.20;;;;;;;16.94;54.14;98156.17;116379;1182;70564;-71
2021/10/05 07:04:11;;;;;;;14.50;7.90;;;;;;;17.25;52.78;98155.81;116454;1181;67957;-72
2021/10/05 07:06:41;;;;;;;16.20;7.60;;;;;;;17.67;51.27;98152.48;116459;1182;68556;-68
2021/10/05 07:09:10;;;;;;;17.00;7.90;;;;;;;17.94;49.80;98150.27;116428;1182;59599;-72
2021/10/05 07:11:39;;;;;;;11.80;6.50;;;;;;;18.20;50.24;98147.41;116307;1182;59542;-70
2021/10/05 07:14:07;;;;;;;14.90;5.80;;;;;;;18.68;47.99;98148.05;116468;1182;70581;-72
2021/10/05 07:16:36;;;;;;;12.10;6.40;;;;;;;18.92;46.22;98145.33;116480;1181;67585;-71
2021/10/05 07:19:05;;;;;;;14.00;5.80;;;;;;;19.29;45.57;98141.35;116464;1182;68546;-68
2021/10/05 07:21:34;;;;;;;10.60;5.40;;;;;;;19.53;44.87;98147.35;116473;1181;59604;-69
2021/10/05 07:24:03;;;;;;;11.40;5.10;;;;;;;19.58;44.23;98143.73;116377;1181;59573;-70
2021/10/05 07:26:33;;;;;;;10.90;5.30;;;;;;;19.53;42.13;98145.41;116422;1182;70280;-69
2021/10/05 07:29:02;;;;;;;8.00;4.50;;;;;;;19.59;42.04;98139.02;116485;1181;67742;-72
2021/10/05 07:31:34;;;;;;;11.20;5.30;;;;;;;19.45;41.88;98137.46;116473;1181;69247;-74
2021/10/05 07:34:08;;;;;;;9.00;4.80;;;;;;;19.54;41.66;98140.29;116464;1181;59545;-70
2021/10/05 07:36:37;;;;;;;16.50;4.90;;;;;;;19.58;41.55;98138.36;116458;1179;59518;-71
2021/10/05 07:39:08;;;;;;;11.00;4.70;;;;;;;19.34;41.52;98137.98;116392;1181;71440;-71
2021/10/05 07:41:37;;;;;;;10.90;5.10;;;;;;;19.23;41.62;98133.38;116538;1182;68472;-72
2021/10/05 07:44:06;;;;;;;9.40;5.20;;;;;;;19.17;41.67;98139.14;116408;1182;69282;-68
2021/10/05 07:46:35;;;;;;;9.10;4.70;;;;;;;19.14;41.81;98141.94;116420;1181;59496;-70
2021/10/05 07:49:06;;;;;;;9.80;5.00;;;;;;;19.16;42.02;98148.10;116392;1183;59553;-72
2021/10/05 07:51:35;;;;;;;9.70;5.00;;;;;;;19.26;41.83;98148.86;116250;1182;71366;-73
2021/10/05 07:54:05;;;;;;;8.10;4.90;;;;;;;19.53;41.38;98146.86;116295;1183;68539;-71
2021/10/05 07:56:34;;;;;;;9.20;5.10;;;;;;;19.65;41.49;98145.91;116293;1182;68690;-72
2021/10/05 07:59:03;;;;;;;8.60;5.20;;;;;;;19.96;41.13;98141.67;116348;1182;60066;-72
2021/10/05 08:01:33;;;;;;;10.50;5.10;;;;;;;20.25;40.14;98143.05;116159;1182;59529;-71
2021/10/05 08:04:04;;;;;;;9.60;5.00;;;;;;;20.39;39.87;98147.59;116379;1184;71420;-73
2021/10/05 08:06:39;;;;;;;8.40;4.80;;;;;;;20.46;39.73;98147.41;116217;1182;68493;-70
2021/10/05 08:09:09;;;;;;;8.30;4.60;;;;;;;20.48;39.58;98140.16;116352;1182;69418;-72
2021/10/05 08:11:38;;;;;;;7.00;4.60;;;;;;;20.45;39.47;98142.01;116325;1182;60007;-72
2021/10/05 08:14:08;;;;;;;11.90;4.90;;;;;;;20.40;39.25;98147.30;116286;1183;59634;-71
2021/10/05 08:16:39;;;;;;;10.30;4.60;;;;;;;20.58;39.20;98137.90;116364;1182;71416;-73
2021/10/05 08:19:11;;;;;;;7.60;4.50;;;;;;;20.77;39.64;98139.49;116119;1184;68369;-72
2021/10/05 08:21:42;;;;;;;10.50;4.70;;;;;;;21.05;38.83;98133.48;116253;1183;68519;-71
2021/10/05 08:24:11;;;;;;;9.10;4.60;;;;;;;21.69;38.16;98123.65;116389;1182;59554;-71
2021/10/05 08:26:40;;;;;;;11.40;4.20;;;;;;;22.00;36.70;98124.84;116268;1173;59538;-70
2021/10/05 08:29:12;;;;;;;8.80;4.20;;;;;;;22.11;36.38;98117.08;116328;1182;70619;-75
2021/10/05 08:32:08;;;;;;;8.00;4.40;;;;;;;21.68;36.79;98112.46;116164;1183;67431;-72
2021/10/05 08:35:23;;;;;;;7.10;3.70;;;;;;;22.10;36.79;98113.02;116402;1182;67300;-74
2021/10/05 08:38:08;;;;;;;9.30;3.90;;;;;;;22.60;35.57;98111.18;116237;1182;59561;-73
2021/10/05 08:40:38;;;;;;;7.70;4.50;;;;;;;22.71;34.63;98118.61;116155;1184;59551;-74
2021/10/05 08:43:07;;;;;;;11.10;3.70;;;;;;;22.45;34.78;98109.09;116357;1182;71408;-71
2021/10/05 08:45:36;;;;;;;11.00;4.50;;;;;;;22.76;33.76;98107.81;116271;1182;67705;-70
2021/10/05 08:48:06;;;;;;;7.70;3.90;;;;;;;23.08;33.50;98104.81;116131;1184;69249;-72
2021/10/05 08:50:38;;;;;;;10.50;4.60;;;;;;;23.39;32.83;98103.66;116281;1182;59628;-73
2021/10/05 08:53:17;;;;;;;5.90;3.70;;;;;;;23.46;32.35;98102.02;116323;1182;59568;-71
2021/10/05 08:55:57;;;;;;;14.10;4.40;;;;;;;23.41;32.19;98103.70;116459;1182;70618;-69
2021/10/05 08:59:11;;;;;;;9.60;4.50;;;;;;;23.53;31.96;98094.38;116335;1182;68331;-69
2021/10/05 09:02:17;;;;;;;9.60;4.10;;;;;;;23.77;32.00;98098.89;116361;1181;68448;-69
2021/10/05 09:04:57;;;;;;;8.60;4.30;;;;;;;23.71;31.97;98102.73;116423;1181;59542;-71
2021/10/05 09:07:26;;;;;;;8.00;4.00;;;;;;;23.81;31.81;98099.50;116445;1181;59611;-71
2021/10/05 09:10:02;;;;;;;9.20;4.70;;;;;;;24.05;31.57;98091.10;116415;1182;71406;-69
2021/10/05 09:12:33;;;;;;;15.60;5.70;;;;;;;24.52;30.32;98088.88;116331;1182;68439;-71
2021/10/05 09:15:09;;;;;;;12.90;5.00;;;;;;;24.44;29.76;98094.35;116566;1182;69237;-71
2021/10/05 09:17:40;;;;;;;11.50;5.30;;;;;;;24.13;30.12;98101.07;116431;1182;59529;-69
2021/10/05 09:20:23;;;;;;;11.50;6.40;;;;;;;24.21;29.85;98101.53;116318;1184;59608;-72
2021/10/05 09:22:57;;;;;;;13.40;5.40;;;;;;;24.11;30.61;98101.19;116446;1182;70758;-71
2021/10/05 09:25:29;;;;;;;8.60;5.80;;;;;;;24.33;30.54;98101.83;116416;1182;67677;-73
2021/10/05 09:28:23;;;;;;;14.50;9.40;;;;;;;24.56;29.84;98099.45;116385;1175;69885;-72
2021/10/05 09:30:59;;;;;;;8.00;3.90;;;;;;;24.69;29.48;98097.34;116447;1182;59546;-73
2021/10/05 09:33:30;;;;;;;6.30;4.00;;;;;;;24.86;29.18;98095.39;116361;1182;59570;-71
2021/10/05 09:36:00;;;;;;;7.10;4.10;;;;;;;24.77;29.46;98099.95;116573;1181;70682;-71
2021/10/05 09:38:35;;;;;;;11.20;3.80;;;;;;;24.84;28.89;98099.25;116427;1182;67553;-68
2021/10/05 09:41:09;;;;;;;10.50;3.80;;;;;;;24.66;29.39;98099.73;116448;1182;69330;-70
2021/10/05 09:43:39;;;;;;;8.20;3.70;;;;;;;24.59;29.31;98098.42;116504;1182;59581;-70
2021/10/05 09:46:14;;;;;;;6.50;3.60;;;;;;;24.15;29.47;98102.98;116421;1182;59532;-71
2021/10/05 09:48:44;;;;;;;9.60;3.60;;;;;;;23.81;29.74;98103.49;116635;1182;71383;-71
2021/10/05 09:51:18;;;;;;;11.90;3.80;;;;;;;24.06;29.81;98101.08;116446;1180;68412;-70
2021/10/05 09:53:47;;;;;;;5.20;3.30;;;;;;;24.37;29.28;98104.08;116504;1182;69129;-71
2021/10/05 09:56:23;;;;;;;6.00;3.40;;;;;;;24.24;28.53;98100.35;116485;1182;59561;-72
2021/10/05 09:58:56;;;;;;;9.40;3.50;;;;;;;23.94;29.01;98096.56;116538;1182;59571;-70
2021/10/05 10:01:28;;;;;;;11.80;3.50;;;;;;;23.60;29.84;98102.20;116395;1182;70629;-69
2021/10/05 10:04:02;;;;;;;3.50;2.90;;;;;;;23.45;29.37;98109.37;116569;1182;67625;-73
2021/10/05 10:06:38;;;;;;;8.00;3.60;;;;;;;23.38;29.72;98110.75;116520;1181;69297;-74
2021/10/05 10:09:10;;;;;;;5.70;3.40;;;;;;;23.39;29.56;98102.83;116202;1182;59585;-73
2021/10/05 10:11:50;;;;;;;9.00;3.30;;;;;;;23.39;29.84;98109.58;116519;1182;59580;-69
2021/10/05 10:15:15;;;;;;;7.40;3.50;;;;;;;23.49;28.81;98098.75;116211;1181;70551;-72
2021/10/05 10:19:40;;;;;;;10.70;3.50;;;;;;;23.16;29.57;98102.06;116154;1182;68263;-68
2021/10/05 10:22:07;;;;;;;;;;;;;;;23.57;29.27;98103.02;116342;1182;67572;-72
2021/10/05 10:24:52;;;;;;;8.40;3.60;;;;;;;23.99;28.78;98100.41;116535;1181;59885;-74
2021/10/05 10:27:26;;;;;;;4.50;3.10;;;;;;;24.31;27.98;98103.53;116653;1182;59581;-74
2021/10/05 10:30:09;;;;;;;8.80;3.50;;;;;;;24.34;27.49;98104.02;116302;1182;71202;-72
2021/10/05 10:32:50;;;;;;;5.10;3.10;;;;;;;23.98;27.26;98105.32;116506;1182;69224;-74
2021/10/05 10:35:22;;;;;;;6.30;3.60;;;;;;;23.73;27.56;98105.72;116553;1182;69400;-72
2021/10/05 10:37:57;;;;;;;7.20;3.30;;;;;;;24.12;27.14;98100.30;116464;1182;59782;-73
2021/10/05 10:40:40;;;;;;;10.00;3.00;;;;;;;24.07;26.73;98100.27;116529;1182;59470;-73
2021/10/05 10:43:16;;;;;;;9.90;3.40;;;;;;;24.67;26.20;98104.00;116305;1182;71858;-73
2021/10/05 10:45:49;;;;;;;7.30;3.40;;;;;;;24.50;26.15;98106.21;116458;1182;68397;-74
2021/10/05 10:48:30;;;;;;;9.00;3.60;;;;;;;24.44;26.21;98110.91;116418;1182;69259;-72
2021/10/05 10:51:15;;;;;;;6.70;3.50;;;;;;;24.68;25.96;98108.27;116446;1182;59535;-68
2021/10/05 10:53:47;;;;;;;8.30;3.30;;;;;;;24.93;25.94;98100.66;116452;1181;59623;-71
2021/10/05 10:56:35;;;;;;;7.10;3.10;;;;;;;24.30;26.67;98101.58;116531;1182;71477;-73
2021/10/05 10:59:12;;;;;;;6.60;3.60;;;;;;;24.14;27.25;98101.38;116477;1182;68388;-73
2021/10/05 11:01:49;;;;;;;7.20;3.20;;;;;;;24.53;27.35;98094.38;116418;1182;68665;-72
2021/10/05 11:04:24;;;;;;;6.60;3.60;;;;;;;24.79;26.83;98097.73;116320;1181;59636;-70
2021/10/05 11:06:58;;;;;;;7.40;3.60;;;;;;;24.90;26.39;98097.36;116309;1173;59561;-75
2021/10/05 11:09:36;;;;;;;;;;;;;;;24.99;25.40;98086.52;116489;1182;70554;-70
2021/10/05 11:12:08;;;;;;;5.70;3.30;;;;;;;24.95;25.26;98094.59;116430;1182;68423;-73
2021/10/05 11:14:41;;;;;;;6.80;3.50;;;;;;;24.70;25.41;98095.55;116481;1182;69258;-72
2021/10/05 11:17:11;;;;;;;9.60;3.60;;;;;;;24.34;26.03;98097.86;116414;1182;59557;-71
2021/10/05 11:19:41;;;;;;;8.40;4.20;;;;;;;24.18;26.50;98091.09;116397;1182;59534;-73
2021/10/05 11:22:16;;;;;;;6.10;3.60;;;;;;;24.41;25.50;98091.30;116223;1182;71349;-71
2021/10/05 11:24:48;;;;;;;6.30;3.30;;;;;;;24.16;26.12;98095.77;116478;1182;68430;-71
2021/10/05 11:27:19;;;;;;;8.30;3.60;;;;;;;24.37;25.87;98092.77;116404;1182;69244;-73
2021/10/05 11:29:51;;;;;;;9.70;3.50;;;;;;;23.86;26.59;98095.38;116408;1182;59604;-73
2021/10/05 11:32:24;;;;;;;9.70;3.70;;;;;;;24.15;26.83;98088.58;116473;1182;59532;-73
2021/10/05 11:34:53;;;;;;;7.80;3.60;;;;;;;24.71;26.20;98084.69;116441;1181;70646;-74
2021/10/05 11:37:50;;;;;;;6.70;3.60;;;;;;;24.88;26.30;98085.18;116275;1182;68855;-70
2021/10/05 11:41:03;;;;;;;7.90;3.60;;;;;;;24.58;26.18;98084.98;116439;1182;68400;-73
2021/10/05 11:43:44;;;;;;;11.50;3.70;;;;;;;24.52;26.12;98085.88;116528;1181;59495;-71
2021/10/05 11:46:19;;;;;;;8.20;3.60;;;;;;;24.38;25.72;98076.14;116609;1182;59509;-72
2021/10/05 11:48:53;;;;;;;8.30;3.10;;;;;;;24.31;25.96;98081.96;116370;1182;71827;-71
2021/10/05 11:51:27;;;;;;;11.20;3.30;;;;;;;24.06;26.13;98083.96;116321;1182;67677;-75
2021/10/05 11:54:00;;;;;;;7.50;3.30;;;;;;;24.04;26.18;98079.44;116440;1182;68081;-71